Hovedside
METAR-TAF:

METAR-TAF

Lufthavner :

Sveg lufthavn

Sveg, Sverige

breddegrad: 62-02-52N, lengdegrad: 014-25-22E, høyde over havet: 359 m

Gjeldene værobservasjon

Denne rapporten ble laget for 20 minutter siden, klokken 12:20 UTC
Vind 9 kt fra Vest
Temperatur 1°C
Luftfuktighet 55%
Trykk 1000 hPa
Sikt 10 km eller mer

METAR: ESND 241220Z AUTO 27009KT 9999 NCD 01/M07 Q1000

Tid: 13:40 (12:40 UTC)


TAF: fraværende

Værobservasjoner og værvarsel for over 4000 flyplasser (METAR- og TAF-rapporter).

Tilgjengelige stasjoner er representert av de røde og gule prikkene på kartet.

Hold musepekeren over prikken for å se navnet på stasjonen.

Klikk så for å se værobservasjoner og -varsler.

For å forandre kartet kan du klikke på den grønne knappen med svart kryss for å zoome inn, på den grønne knappen med strek for å zoome ut, eller på de grønne pilene for å se tilstøtende kart.


METAR-TAF: